sensor_id;sensor_type;location;lat;lon;timestamp;pressure;altitude;pressure_sealevel;temperature;humidity
45255;BME280;30989;52.078;21.014;2023-03-03T00:01:04;163081.28;;;-2.55;100.00
45255;BME280;30989;52.078;21.014;2023-03-03T00:03:30;163069.34;;;-2.60;100.00
45255;BME280;30989;52.078;21.014;2023-03-03T00:05:56;163101.19;;;-2.48;100.00
45255;BME280;30989;52.078;21.014;2023-03-03T00:08:22;163097.22;;;-2.49;100.00
45255;BME280;30989;52.078;21.014;2023-03-03T00:10:48;163099.88;;;-2.48;100.00
45255;BME280;30989;52.078;21.014;2023-03-03T00:13:22;163103.84;;;-2.47;100.00
45255;BME280;30989;52.078;21.014;2023-03-03T00:15:48;163110.47;;;-2.44;100.00
45255;BME280;30989;52.078;21.014;2023-03-03T00:18:35;163111.81;;;-2.44;100.00
45255;BME280;30989;52.078;21.014;2023-03-03T00:21:02;163114.47;;;-2.43;100.00
45255;BME280;30989;52.078;21.014;2023-03-03T00:23:39;163121.09;;;-2.40;100.00
45255;BME280;30989;52.078;21.014;2023-03-03T00:26:20;163125.06;;;-2.39;100.00
45255;BME280;30989;52.078;21.014;2023-03-03T00:28:48;163097.22;;;-2.49;100.00
45255;BME280;30989;52.078;21.014;2023-03-03T00:31:34;163125.06;;;-2.39;100.00
45255;BME280;30989;52.078;21.014;2023-03-03T00:36:42;163127.72;;;-2.38;100.00
45255;BME280;30989;52.078;21.014;2023-03-03T00:41:45;163135.69;;;-2.35;100.00
45255;BME280;30989;52.078;21.014;2023-03-03T00:44:38;163139.69;;;-2.33;100.00
45255;BME280;30989;52.078;21.014;2023-03-03T00:49:47;163148.97;;;-2.30;100.00
45255;BME280;30989;52.078;21.014;2023-03-03T00:52:15;163148.97;;;-2.30;100.00
45255;BME280;30989;52.078;21.014;2023-03-03T00:54:41;163146.31;;;-2.31;100.00
45255;BME280;30989;52.078;21.014;2023-03-03T00:57:07;163146.31;;;-2.31;100.00
45255;BME280;30989;52.078;21.014;2023-03-03T00:59:33;163138.34;;;-2.34;100.00
45255;BME280;30989;52.078;21.014;2023-03-03T01:01:58;163134.38;;;-2.35;100.00
45255;BME280;30989;52.078;21.014;2023-03-03T01:04:24;163141.00;;;-2.33;100.00
45255;BME280;30989;52.078;21.014;2023-03-03T01:06:50;163147.63;;;-2.30;100.00
45255;BME280;30989;52.078;21.014;2023-03-03T01:09:15;163138.34;;;-2.34;100.00
45255;BME280;30989;52.078;21.014;2023-03-03T01:11:41;163146.31;;;-2.31;100.00
45255;BME280;30989;52.078;21.014;2023-03-03T01:14:06;163145.00;;;-2.31;100.00
45255;BME280;30989;52.078;21.014;2023-03-03T01:16:33;163111.81;;;-2.44;100.00
45255;BME280;30989;52.078;21.014;2023-03-03T01:18:58;163146.31;;;-2.31;100.00
45255;BME280;30989;52.078;21.014;2023-03-03T01:21:24;163141.00;;;-2.33;100.00
45255;BME280;30989;52.078;21.014;2023-03-03T01:23:49;163143.66;;;-2.32;100.00
45255;BME280;30989;52.078;21.014;2023-03-03T01:26:15;163141.00;;;-2.33;100.00
45255;BME280;30989;52.078;21.014;2023-03-03T01:28:41;163143.66;;;-2.32;100.00
45255;BME280;30989;52.078;21.014;2023-03-03T01:31:06;163142.34;;;-2.32;100.00
45255;BME280;30989;52.078;21.014;2023-03-03T01:33:33;163130.38;;;-2.37;100.00
45255;BME280;30989;52.078;21.014;2023-03-03T01:35:59;163130.38;;;-2.37;100.00
45255;BME280;30989;52.078;21.014;2023-03-03T01:38:25;163123.75;;;-2.39;100.00
45255;BME280;30989;52.078;21.014;2023-03-03T01:40:52;163125.06;;;-2.39;100.00
45255;BME280;30989;52.078;21.014;2023-03-03T01:43:18;163122.41;;;-2.40;100.00
45255;BME280;30989;52.078;21.014;2023-03-03T01:48:55;163109.16;;;-2.45;100.00
45255;BME280;30989;52.078;21.014;2023-03-03T01:51:38;163099.88;;;-2.48;100.00
45255;BME280;30989;52.078;21.014;2023-03-03T01:54:13;163101.19;;;-2.48;100.00
45255;BME280;30989;52.078;21.014;2023-03-03T01:56:41;163090.56;;;-2.52;100.00
45255;BME280;30989;52.078;21.014;2023-03-03T01:59:13;163089.25;;;-2.52;100.00
45255;BME280;30989;52.078;21.014;2023-03-03T02:01:40;163069.34;;;-2.60;100.00
45255;BME280;30989;52.078;21.014;2023-03-03T02:04:08;163077.31;;;-2.57;100.00
45255;BME280;30989;52.078;21.014;2023-03-03T02:06:36;163066.69;;;-2.61;100.00
45255;BME280;30989;52.078;21.014;2023-03-03T02:09:10;163066.69;;;-2.61;100.00
45255;BME280;30989;52.078;21.014;2023-03-03T02:11:40;163038.81;;;-2.72;100.00
45255;BME280;30989;52.078;21.014;2023-03-03T02:14:08;163053.41;;;-2.66;100.00
45255;BME280;30989;52.078;21.014;2023-03-03T02:16:34;163044.13;;;-2.70;100.00
45255;BME280;30989;52.078;21.014;2023-03-03T02:19:00;163026.88;;;-2.76;100.00
45255;BME280;30989;52.078;21.014;2023-03-03T02:21:26;163008.31;;;-2.83;100.00
45255;BME280;30989;52.078;21.014;2023-03-03T02:26:26;163009.63;;;-2.83;100.00
45255;BME280;30989;52.078;21.014;2023-03-03T02:28:57;163012.28;;;-2.82;100.00
45255;BME280;30989;52.078;21.014;2023-03-03T02:31:25;163014.94;;;-2.81;100.00
45255;BME280;30989;52.078;21.014;2023-03-03T02:33:53;162980.44;;;-2.94;100.00
45255;BME280;30989;52.078;21.014;2023-03-03T02:36:27;162993.72;;;-2.89;100.00
45255;BME280;30989;52.078;21.014;2023-03-03T02:44:03;163024.22;;;-2.77;100.00
45255;BME280;30989;52.078;21.014;2023-03-03T02:46:35;163025.53;;;-2.77;100.00
45255;BME280;30989;52.078;21.014;2023-03-03T02:49:03;163028.19;;;-2.76;100.00
45255;BME280;30989;52.078;21.014;2023-03-03T02:51:29;163032.19;;;-2.74;100.00
45255;BME280;30989;52.078;21.014;2023-03-03T02:53:54;163028.19;;;-2.76;100.00
45255;BME280;30989;52.078;21.014;2023-03-03T02:56:20;163021.56;;;-2.78;100.00
45255;BME280;30989;52.078;21.014;2023-03-03T02:58:46;163018.91;;;-2.79;100.00
45255;BME280;30989;52.078;21.014;2023-03-03T03:01:11;162989.72;;;-2.90;100.00
45255;BME280;30989;52.078;21.014;2023-03-03T03:03:37;163025.53;;;-2.77;100.00
45255;BME280;30989;52.078;21.014;2023-03-03T03:06:05;163018.91;;;-2.79;100.00
45255;BME280;30989;52.078;21.014;2023-03-03T03:08:30;163024.22;;;-2.77;100.00
45255;BME280;30989;52.078;21.014;2023-03-03T03:10:56;163024.22;;;-2.77;100.00
45255;BME280;30989;52.078;21.014;2023-03-03T03:13:24;163029.53;;;-2.75;100.00
45255;BME280;30989;52.078;21.014;2023-03-03T03:15:50;163028.19;;;-2.76;100.00
45255;BME280;30989;52.078;21.014;2023-03-03T03:18:16;163030.84;;;-2.75;100.00
45255;BME280;30989;52.078;21.014;2023-03-03T03:20:43;163037.50;;;-2.72;100.00
45255;BME280;30989;52.078;21.014;2023-03-03T03:23:09;163041.47;;;-2.71;100.00
45255;BME280;30989;52.078;21.014;2023-03-03T03:25:35;163058.72;;;-2.64;100.00
45255;BME280;30989;52.078;21.014;2023-03-03T03:28:07;163053.41;;;-2.66;100.00
45255;BME280;30989;52.078;21.014;2023-03-03T03:30:34;163064.03;;;-2.62;100.00
45255;BME280;30989;52.078;21.014;2023-03-03T03:33:00;163072.00;;;-2.59;100.00
45255;BME280;30989;52.078;21.014;2023-03-03T03:35:26;163064.03;;;-2.62;100.00
45255;BME280;30989;52.078;21.014;2023-03-03T03:37:52;163068.00;;;-2.61;100.00
45255;BME280;30989;52.078;21.014;2023-03-03T03:40:18;163073.31;;;-2.58;100.00
45255;BME280;30989;52.078;21.014;2023-03-03T03:42:44;163074.66;;;-2.58;100.00
45255;BME280;30989;52.078;21.014;2023-03-03T03:45:10;163060.06;;;-2.64;100.00
45255;BME280;30989;52.078;21.014;2023-03-03T03:47:41;163078.63;;;-2.56;100.00
45255;BME280;30989;52.078;21.014;2023-03-03T03:50:08;163081.28;;;-2.55;100.00
45255;BME280;30989;52.078;21.014;2023-03-03T03:52:34;163069.34;;;-2.60;100.00
45255;BME280;30989;52.078;21.014;2023-03-03T03:55:00;163052.09;;;-2.67;100.00
45255;BME280;30989;52.078;21.014;2023-03-03T03:57:26;163061.38;;;-2.63;100.00
45255;BME280;30989;52.078;21.014;2023-03-03T03:59:52;163081.28;;;-2.55;100.00
45255;BME280;30989;52.078;21.014;2023-03-03T04:02:18;163070.66;;;-2.60;100.00
45255;BME280;30989;52.078;21.014;2023-03-03T04:04:44;163070.66;;;-2.60;100.00
45255;BME280;30989;52.078;21.014;2023-03-03T04:07:11;163082.59;;;-2.55;100.00
45255;BME280;30989;52.078;21.014;2023-03-03T04:09:36;163066.69;;;-2.61;100.00
45255;BME280;30989;52.078;21.014;2023-03-03T04:12:02;163072.00;;;-2.59;100.00
45255;BME280;30989;52.078;21.014;2023-03-03T04:14:29;163058.72;;;-2.64;100.00
45255;BME280;30989;52.078;21.014;2023-03-03T04:16:55;163065.34;;;-2.62;100.00
45255;BME280;30989;52.078;21.014;2023-03-03T04:19:21;163044.13;;;-2.70;100.00
45255;BME280;30989;52.078;21.014;2023-03-03T04:21:50;163017.59;;;-2.80;100.00
45255;BME280;30989;52.078;21.014;2023-03-03T04:24:15;163033.50;;;-2.74;100.00
45255;BME280;30989;52.078;21.014;2023-03-03T04:26:41;163026.88;;;-2.76;100.00
45255;BME280;30989;52.078;21.014;2023-03-03T04:29:09;163008.31;;;-2.83;100.00
45255;BME280;30989;52.078;21.014;2023-03-03T04:31:36;162999.00;;;-2.87;100.00
45255;BME280;30989;52.078;21.014;2023-03-03T04:34:03;162981.75;;;-2.94;100.00
45255;BME280;30989;52.078;21.014;2023-03-03T04:36:29;162979.09;;;-2.95;100.00
45255;BME280;30989;52.078;21.014;2023-03-03T04:38:54;162984.41;;;-2.93;100.00
45255;BME280;30989;52.078;21.014;2023-03-03T04:41:21;162976.47;;;-2.96;100.00
45255;BME280;30989;52.078;21.014;2023-03-03T04:43:46;162972.47;;;-2.97;100.00
45255;BME280;30989;52.078;21.014;2023-03-03T04:46:12;162975.13;;;-2.96;100.00
45255;BME280;30989;52.078;21.014;2023-03-03T04:48:38;162968.50;;;-2.99;100.00
45255;BME280;30989;52.078;21.014;2023-03-03T04:51:04;162955.22;;;-3.04;100.00
45255;BME280;30989;52.078;21.014;2023-03-03T04:53:31;162975.13;;;-2.96;100.00
45255;BME280;30989;52.078;21.014;2023-03-03T04:55:57;162973.81;;;-2.97;100.00
45255;BME280;30989;52.078;21.014;2023-03-03T04:58:23;162968.50;;;-2.99;100.00
45255;BME280;30989;52.078;21.014;2023-03-03T05:00:54;162955.22;;;-3.04;100.00
45255;BME280;30989;52.078;21.014;2023-03-03T05:03:21;162964.53;;;-3.00;100.00
45255;BME280;30989;52.078;21.014;2023-03-03T05:05:48;162953.91;;;-3.04;100.00
45255;BME280;30989;52.078;21.014;2023-03-03T05:08:13;162957.88;;;-3.03;100.00
45255;BME280;30989;52.078;21.014;2023-03-03T05:10:39;162941.97;;;-3.09;100.00
45255;BME280;30989;52.078;21.014;2023-03-03T05:13:05;162931.34;;;-3.13;100.00
45255;BME280;30989;52.078;21.014;2023-03-03T05:15:31;162940.63;;;-3.09;100.00
45255;BME280;30989;52.078;21.014;2023-03-03T05:17:57;162926.06;;;-3.15;100.00
45255;BME280;30989;52.078;21.014;2023-03-03T05:20:23;162928.69;;;-3.14;100.00
45255;BME280;30989;52.078;21.014;2023-03-03T05:22:49;162922.06;;;-3.16;100.00
45255;BME280;30989;52.078;21.014;2023-03-03T05:25:14;162908.81;;;-3.21;100.00
45255;BME280;30989;52.078;21.014;2023-03-03T05:27:40;162915.44;;;-3.19;100.00
45255;BME280;30989;52.078;21.014;2023-03-03T05:30:06;162912.78;;;-3.20;100.00
45255;BME280;30989;52.078;21.014;2023-03-03T05:32:31;162916.75;;;-3.18;100.00
45255;BME280;30989;52.078;21.014;2023-03-03T05:34:57;162919.41;;;-3.17;100.00
45255;BME280;30989;52.078;21.014;2023-03-03T05:37:22;162915.44;;;-3.19;100.00
45255;BME280;30989;52.078;21.014;2023-03-03T05:39:48;162907.47;;;-3.22;100.00
45255;BME280;30989;52.078;21.014;2023-03-03T05:42:14;162931.34;;;-3.13;100.00
45255;BME280;30989;52.078;21.014;2023-03-03T05:44:39;162932.69;;;-3.12;100.00
45255;BME280;30989;52.078;21.014;2023-03-03T05:47:05;162922.06;;;-3.16;100.00
45255;BME280;30989;52.078;21.014;2023-03-03T05:49:30;162931.34;;;-3.13;100.00
45255;BME280;30989;52.078;21.014;2023-03-03T05:51:56;162934.00;;;-3.12;100.00
45255;BME280;30989;52.078;21.014;2023-03-03T05:54:21;162940.63;;;-3.09;100.00
45255;BME280;30989;52.078;21.014;2023-03-03T05:56:47;162944.63;;;-3.08;100.00
45255;BME280;30989;52.078;21.014;2023-03-03T05:59:12;162941.97;;;-3.09;100.00
45255;BME280;30989;52.078;21.014;2023-03-03T06:01:38;162955.22;;;-3.04;100.00
45255;BME280;30989;52.078;21.014;2023-03-03T06:04:03;162968.50;;;-2.99;100.00
45255;BME280;30989;52.078;21.014;2023-03-03T06:06:28;162979.09;;;-2.95;100.00
45255;BME280;30989;52.078;21.014;2023-03-03T06:08:54;162989.72;;;-2.90;100.00
45255;BME280;30989;52.078;21.014;2023-03-03T06:11:19;162995.03;;;-2.88;100.00
45255;BME280;30989;52.078;21.014;2023-03-03T06:13:45;162995.03;;;-2.88;100.00
45255;BME280;30989;52.078;21.014;2023-03-03T06:16:11;163024.22;;;-2.77;100.00
45255;BME280;30989;52.078;21.014;2023-03-03T06:18:36;163009.63;;;-2.83;100.00
45255;BME280;30989;52.078;21.014;2023-03-03T06:21:02;163041.47;;;-2.71;100.00
45255;BME280;30989;52.078;21.014;2023-03-03T06:23:27;163034.84;;;-2.73;100.00
45255;BME280;30989;52.078;21.014;2023-03-03T06:25:53;163045.44;;;-2.69;100.00
45255;BME280;30989;52.078;21.014;2023-03-03T06:28:18;163066.69;;;-2.61;100.00
45255;BME280;30989;52.078;21.014;2023-03-03T06:30:44;163072.00;;;-2.59;100.00
45255;BME280;30989;52.078;21.014;2023-03-03T06:33:09;163042.81;;;-2.70;100.00
45255;BME280;30989;52.078;21.014;2023-03-03T06:35:35;163068.00;;;-2.61;100.00
45255;BME280;30989;52.078;21.014;2023-03-03T06:38:01;163072.00;;;-2.59;100.00
45255;BME280;30989;52.078;21.014;2023-03-03T06:40:26;163082.59;;;-2.55;100.00
45255;BME280;30989;52.078;21.014;2023-03-03T06:42:51;163083.94;;;-2.54;100.00
45255;BME280;30989;52.078;21.014;2023-03-03T06:45:17;163069.34;;;-2.60;100.00
45255;BME280;30989;52.078;21.014;2023-03-03T06:47:42;163106.50;;;-2.46;100.00
45255;BME280;30989;52.078;21.014;2023-03-03T06:50:11;163118.44;;;-2.41;100.00
45255;BME280;30989;52.078;21.014;2023-03-03T06:52:37;163138.34;;;-2.34;100.00
45255;BME280;30989;52.078;21.014;2023-03-03T06:55:20;163141.00;;;-2.33;100.00
45255;BME280;30989;52.078;21.014;2023-03-03T06:57:46;163152.94;;;-2.28;100.00
45255;BME280;30989;52.078;21.014;2023-03-03T07:00:23;163158.25;;;-2.26;100.00
45255;BME280;30989;52.078;21.014;2023-03-03T07:03:00;163152.94;;;-2.28;100.00
45255;BME280;30989;52.078;21.014;2023-03-03T07:05:27;163163.56;;;-2.24;100.00
45255;BME280;30989;52.078;21.014;2023-03-03T07:07:57;163158.25;;;-2.26;100.00
45255;BME280;30989;52.078;21.014;2023-03-03T07:10:28;163150.28;;;-2.29;100.00
45255;BME280;30989;52.078;21.014;2023-03-03T07:12:57;163154.28;;;-2.28;100.00
45255;BME280;30989;52.078;21.014;2023-03-03T07:15:33;163164.91;;;-2.23;100.00
45255;BME280;30989;52.078;21.014;2023-03-03T07:18:00;163171.53;;;-2.21;100.00
45255;BME280;30989;52.078;21.014;2023-03-03T07:20:35;163184.81;;;-2.16;100.00
45255;BME280;30989;52.078;21.014;2023-03-03T07:23:25;163206.06;;;-2.08;100.00
45255;BME280;30989;52.078;21.014;2023-03-03T07:25:52;163202.06;;;-2.09;100.00
45255;BME280;30989;52.078;21.014;2023-03-03T07:28:24;163223.31;;;-2.01;100.00
45255;BME280;30989;52.078;21.014;2023-03-03T07:30:51;163231.28;;;-1.98;100.00
45255;BME280;30989;52.078;21.014;2023-03-03T07:33:28;163237.91;;;-1.96;100.00
45255;BME280;30989;52.078;21.014;2023-03-03T07:35:57;163231.28;;;-1.98;100.00
45255;BME280;30989;52.078;21.014;2023-03-03T07:41:19;163223.31;;;-2.01;100.00
45255;BME280;30989;52.078;21.014;2023-03-03T07:43:52;163216.66;;;-2.04;100.00
45255;BME280;30989;52.078;21.014;2023-03-03T07:49:11;163214.00;;;-2.05;100.00
45255;BME280;30989;52.078;21.014;2023-03-03T07:51:40;163220.66;;;-2.02;100.00
45255;BME280;30989;52.078;21.014;2023-03-03T07:54:30;163253.84;;;-1.89;100.00
45255;BME280;30989;52.078;21.014;2023-03-03T07:57:22;163257.81;;;-1.88;100.00
45255;BME280;30989;52.078;21.014;2023-03-03T08:04:53;163313.59;;;-1.67;100.00
45255;BME280;30989;52.078;21.014;2023-03-03T08:07:21;163313.59;;;-1.67;100.00
45255;BME280;30989;52.078;21.014;2023-03-03T08:09:59;163345.47;;;-1.54;100.00
45255;BME280;30989;52.078;21.014;2023-03-03T08:12:32;163357.44;;;-1.50;100.00
45255;BME280;30989;52.078;21.014;2023-03-03T08:17:43;163418.53;;;-1.26;100.00
45255;BME280;30989;52.078;21.014;2023-03-03T08:22:59;163454.38;;;-1.13;100.00
45255;BME280;30989;52.078;21.014;2023-03-03T08:25:25;163454.38;;;-1.13;100.00
45255;BME280;30989;52.078;21.014;2023-03-03T08:27:50;163470.34;;;-1.07;100.00
45255;BME280;30989;52.078;21.014;2023-03-03T08:30:16;163478.31;;;-1.04;100.00
45255;BME280;30989;52.078;21.014;2023-03-03T08:32:41;163487.59;;;-1.00;100.00
45255;BME280;30989;52.078;21.014;2023-03-03T08:35:07;163486.28;;;-1.01;100.00
45255;BME280;30989;52.078;21.014;2023-03-03T08:37:33;163502.22;;;-0.94;100.00
45255;BME280;30989;52.078;21.014;2023-03-03T08:39:58;163530.13;;;-0.84;100.00
45255;BME280;30989;52.078;21.014;2023-03-03T08:42:24;163527.47;;;-0.85;100.00
45255;BME280;30989;52.078;21.014;2023-03-03T08:44:49;163519.50;;;-0.88;100.00
45255;BME280;30989;52.078;21.014;2023-03-03T08:47:15;163544.75;;;-0.78;100.00
45255;BME280;30989;52.078;21.014;2023-03-03T08:49:40;163547.41;;;-0.77;100.00
45255;BME280;30989;52.078;21.014;2023-03-03T08:52:06;163573.97;;;-0.67;100.00
45255;BME280;30989;52.078;21.014;2023-03-03T08:54:31;163583.28;;;-0.63;100.00
45255;BME280;30989;52.078;21.014;2023-03-03T08:56:56;163611.19;;;-0.53;100.00
45255;BME280;30989;52.078;21.014;2023-03-03T08:59:22;163615.19;;;-0.51;100.00
45255;BME280;30989;52.078;21.014;2023-03-03T09:01:48;163635.13;;;-0.44;100.00
45255;BME280;30989;52.078;21.014;2023-03-03T09:04:13;163621.81;;;-0.49;100.00
45255;BME280;30989;52.078;21.014;2023-03-03T09:06:38;163621.81;;;-0.49;100.00
45255;BME280;30989;52.078;21.014;2023-03-03T09:09:04;163648.41;;;-0.39;100.00
45255;BME280;30989;52.078;21.014;2023-03-03T09:11:30;163657.72;;;-0.35;100.00
45255;BME280;30989;52.078;21.014;2023-03-03T09:14:14;163678.97;;;-0.27;100.00
45255;BME280;30989;52.078;21.014;2023-03-03T09:16:51;163690.94;;;-0.22;100.00
45255;BME280;30989;52.078;21.014;2023-03-03T09:19:27;163685.63;;;-0.24;100.00
45255;BME280;30989;52.078;21.014;2023-03-03T09:24:41;163667.03;;;-0.32;100.00
45255;BME280;30989;52.078;21.014;2023-03-03T09:27:17;163667.03;;;-0.32;100.00
45255;BME280;30989;52.078;21.014;2023-03-03T09:29:43;163651.06;;;-0.38;100.00
45255;BME280;30989;52.078;21.014;2023-03-03T09:32:30;163655.06;;;-0.36;100.00
45255;BME280;30989;52.078;21.014;2023-03-03T09:34:58;163651.06;;;-0.38;100.00
45255;BME280;30989;52.078;21.014;2023-03-03T09:37:35;163660.38;;;-0.34;100.00
45255;BME280;30989;52.078;21.014;2023-03-03T09:40:18;163659.03;;;-0.35;100.00
45255;BME280;30989;52.078;21.014;2023-03-03T09:43:15;163645.75;;;-0.40;100.00
45255;BME280;30989;52.078;21.014;2023-03-03T09:46:00;163656.38;;;-0.36;100.00
45255;BME280;30989;52.078;21.014;2023-03-03T09:51:05;163682.97;;;-0.25;100.00
45255;BME280;30989;52.078;21.014;2023-03-03T09:54:00;163681.66;;;-0.26;100.00
45255;BME280;30989;52.078;21.014;2023-03-03T09:56:33;163668.34;;;-0.31;100.00
45255;BME280;30989;52.078;21.014;2023-03-03T10:09:44;163637.78;;;-0.43;100.00
45255;BME280;30989;52.078;21.014;2023-03-03T10:12:26;163616.50;;;-0.51;100.00
45255;BME280;30989;52.078;21.014;2023-03-03T10:15:03;163592.59;;;-0.60;100.00
45255;BME280;30989;52.078;21.014;2023-03-03T10:22:49;163599.22;;;-0.57;100.00
45255;BME280;30989;52.078;21.014;2023-03-03T10:25:39;163615.19;;;-0.51;100.00
45255;BME280;30989;52.078;21.014;2023-03-03T10:34:18;163619.16;;;-0.50;100.00
45255;BME280;30989;52.078;21.014;2023-03-03T10:55:42;163613.84;;;-0.52;100.00
45255;BME280;30989;52.078;21.014;2023-03-03T10:58:32;163611.19;;;-0.53;100.00
45255;BME280;30989;52.078;21.014;2023-03-03T11:04:00;163595.25;;;-0.59;100.00
45255;BME280;30989;52.078;21.014;2023-03-03T11:17:34;163609.88;;;-0.53;100.00
45255;BME280;30989;52.078;21.014;2023-03-03T11:25:35;163596.56;;;-0.58;100.00
45255;BME280;30989;52.078;21.014;2023-03-03T11:28:10;163584.63;;;-0.63;100.00
45255;BME280;30989;52.078;21.014;2023-03-03T11:34:19;163584.63;;;-0.63;100.00
45255;BME280;30989;52.078;21.014;2023-03-03T11:36:50;163547.41;;;-0.77;100.00
45255;BME280;30989;52.078;21.014;2023-03-03T11:39:22;163558.03;;;-0.73;100.00
45255;BME280;30989;52.078;21.014;2023-03-03T11:44:45;163558.03;;;-0.73;100.00
45255;BME280;30989;52.078;21.014;2023-03-03T11:47:24;163534.13;;;-0.82;100.00
45255;BME280;30989;52.078;21.014;2023-03-03T11:50:17;163534.13;;;-0.82;100.00
45255;BME280;30989;52.078;21.014;2023-03-03T11:52:54;163538.09;;;-0.81;100.00
45255;BME280;30989;52.078;21.014;2023-03-03T11:55:32;163532.78;;;-0.83;100.00
45255;BME280;30989;52.078;21.014;2023-03-03T12:00:59;163515.50;;;-0.89;100.00
45255;BME280;30989;52.078;21.014;2023-03-03T12:27:46;163486.28;;;-1.01;100.00
45255;BME280;30989;52.078;21.014;2023-03-03T12:32:57;163490.28;;;-0.99;100.00
45255;BME280;30989;52.078;21.014;2023-03-03T12:35:46;163483.63;;;-1.02;100.00
45255;BME280;30989;52.078;21.014;2023-03-03T12:38:24;163465.03;;;-1.09;100.00
45255;BME280;30989;52.078;21.014;2023-03-03T12:41:52;163457.06;;;-1.12;100.00
45255;BME280;30989;52.078;21.014;2023-03-03T12:44:32;163465.03;;;-1.09;100.00
45255;BME280;30989;52.078;21.014;2023-03-03T12:50:08;163441.09;;;-1.18;100.00
45255;BME280;30989;52.078;21.014;2023-03-03T13:14:24;163457.06;;;-1.12;100.00
45255;BME280;30989;52.078;21.014;2023-03-03T13:17:07;163451.75;;;-1.14;100.00
45255;BME280;30989;52.078;21.014;2023-03-03T13:19:40;163466.34;;;-1.08;100.00
45255;BME280;30989;52.078;21.014;2023-03-03T13:22:14;163458.38;;;-1.11;100.00
45255;BME280;30989;52.078;21.014;2023-03-03T13:24:47;163470.34;;;-1.07;100.00
45255;BME280;30989;52.078;21.014;2023-03-03T13:27:18;163484.94;;;-1.01;100.00
45255;BME280;30989;52.078;21.014;2023-03-03T13:30:02;163474.31;;;-1.05;100.00
45255;BME280;30989;52.078;21.014;2023-03-03T13:35:32;163455.72;;;-1.12;100.00
45255;BME280;30989;52.078;21.014;2023-03-03T13:38:03;163457.06;;;-1.12;100.00
45255;BME280;30989;52.078;21.014;2023-03-03T13:40:41;163453.06;;;-1.13;100.00
45255;BME280;30989;52.078;21.014;2023-03-03T13:43:14;163441.09;;;-1.18;100.00
45255;BME280;30989;52.078;21.014;2023-03-03T13:46:10;163434.47;;;-1.20;100.00
45255;BME280;30989;52.078;21.014;2023-03-03T13:48:54;163433.13;;;-1.21;100.00
45255;BME280;30989;52.078;21.014;2023-03-03T13:54:51;163431.81;;;-1.21;100.00
45255;BME280;30989;52.078;21.014;2023-03-03T13:57:44;163434.47;;;-1.20;100.00
45255;BME280;30989;52.078;21.014;2023-03-03T14:03:33;163441.09;;;-1.18;100.00
45255;BME280;30989;52.078;21.014;2023-03-03T14:06:08;163435.78;;;-1.20;100.00
45255;BME280;30989;52.078;21.014;2023-03-03T14:08:55;163430.47;;;-1.22;100.00
45255;BME280;30989;52.078;21.014;2023-03-03T14:14:13;163406.56;;;-1.31;100.00
45255;BME280;30989;52.078;21.014;2023-03-03T14:16:54;163391.97;;;-1.37;100.00
45255;BME280;30989;52.078;21.014;2023-03-03T14:19:39;163393.28;;;-1.36;100.00
45255;BME280;30989;52.078;21.014;2023-03-03T14:22:29;163382.66;;;-1.40;100.00
45255;BME280;30989;52.078;21.014;2023-03-03T14:30:37;163362.75;;;-1.48;100.00
45255;BME280;30989;52.078;21.014;2023-03-03T14:38:16;163369.38;;;-1.45;100.00
45255;BME280;30989;52.078;21.014;2023-03-03T14:40:46;163398.59;;;-1.34;100.00
45255;BME280;30989;52.078;21.014;2023-03-03T14:43:26;163395.94;;;-1.35;100.00
45255;BME280;30989;52.078;21.014;2023-03-03T14:46:21;163399.94;;;-1.34;100.00
45255;BME280;30989;52.078;21.014;2023-03-03T14:49:05;163417.19;;;-1.27;100.00
45255;BME280;30989;52.078;21.014;2023-03-03T14:54:15;163425.16;;;-1.24;100.00
45255;BME280;30989;52.078;21.014;2023-03-03T14:56:59;163398.59;;;-1.34;100.00
45255;BME280;30989;52.078;21.014;2023-03-03T14:59:25;163391.97;;;-1.37;100.00
45255;BME280;30989;52.078;21.014;2023-03-03T15:04:27;163397.28;;;-1.35;100.00
45255;BME280;30989;52.078;21.014;2023-03-03T15:06:55;163386.66;;;-1.39;100.00
45255;BME280;30989;52.078;21.014;2023-03-03T15:09:31;163384.00;;;-1.40;100.00
45255;BME280;30989;52.078;21.014;2023-03-03T15:14:45;163360.09;;;-1.49;100.00
45255;BME280;30989;52.078;21.014;2023-03-03T15:17:43;163377.34;;;-1.42;100.00
45255;BME280;30989;52.078;21.014;2023-03-03T15:23:27;163373.38;;;-1.44;100.00
45255;BME280;30989;52.078;21.014;2023-03-03T15:28:44;163370.72;;;-1.45;100.00
45255;BME280;30989;52.078;21.014;2023-03-03T15:39:34;163364.06;;;-1.47;100.00
45255;BME280;30989;52.078;21.014;2023-03-03T15:42:04;163365.41;;;-1.47;100.00
45255;BME280;30989;52.078;21.014;2023-03-03T15:47:40;163372.03;;;-1.44;100.00
45255;BME280;30989;52.078;21.014;2023-03-03T16:01:36;163342.81;;;-1.55;100.00
45255;BME280;30989;52.078;21.014;2023-03-03T16:04:18;163337.50;;;-1.57;100.00
45255;BME280;30989;52.078;21.014;2023-03-03T16:09:53;163326.88;;;-1.62;100.00
45255;BME280;30989;52.078;21.014;2023-03-03T16:12:28;163326.88;;;-1.62;100.00
45255;BME280;30989;52.078;21.014;2023-03-03T16:18:50;163329.53;;;-1.60;100.00
45255;BME280;30989;52.078;21.014;2023-03-03T16:21:40;163329.53;;;-1.60;100.00
45255;BME280;30989;52.078;21.014;2023-03-03T16:27:53;163340.16;;;-1.56;100.00
45255;BME280;30989;52.078;21.014;2023-03-03T16:35:42;163337.50;;;-1.57;100.00
45255;BME280;30989;52.078;21.014;2023-03-03T16:38:27;163348.13;;;-1.53;100.00
45255;BME280;30989;52.078;21.014;2023-03-03T16:40:59;163349.47;;;-1.53;100.00
45255;BME280;30989;52.078;21.014;2023-03-03T16:49:02;163342.81;;;-1.55;100.00
45255;BME280;30989;52.078;21.014;2023-03-03T16:54:15;163325.56;;;-1.62;100.00